aviador You're here:

LFRK Decoded Metar

CAEN in FRANCE
Report Time2018-07-16 10:00:00
UTC Time2018-07-16 10:23:59
Flight Rules vfr VFR
Wind320° at 06 kt
W.Decomp.*RWY 31: 5.9 kt HW 1.1 kt RCW
RWY 05: 0.1 kt HW 6 kt LCW
W.Rank320° ranks 29
Current wind is below 320° avg. (7.9)
Visibility9999 m
Phenomena:N/A
Clouds:N/A
Expected CloudBase > 5,600 ft AGL from Temp-Dew spread
CeilingNone
Temp26°C (ISA +11)
Dew Point12°C (42% RH)
AAT24.5°C
QNH1015 hPa
Density Alt1,663 ft
Elevation220 ft
Report Wrong Elevation
Raw Report
LFRK 161000Z AUTO 32006KT 270V020 CAVOK 26/12 Q1015 NOSIG=

Extra information for LFRK:More info

Metar Taf Metar & Taf Last 4 Metars F.Rules Stats Wind Profile Meteogram Temp Stats Airport Information Weather charts Add Link Nearby VenuesMetar ALERT Operation Metar Decoded Social comments